sensor_id;sensor_type;location;lat;lon;timestamp;temperature;humidity
13052;DHT22;6592;47.484;9.726;2022-11-02T00:01:21;10.80;99.90
13052;DHT22;6592;47.484;9.726;2022-11-02T00:03:51;10.80;99.90
13052;DHT22;6592;47.484;9.726;2022-11-02T00:06:20;10.90;99.90
13052;DHT22;6592;47.484;9.726;2022-11-02T00:08:49;10.90;99.90
13052;DHT22;6592;47.484;9.726;2022-11-02T00:11:17;10.90;99.90
13052;DHT22;6592;47.484;9.726;2022-11-02T00:13:45;11.00;99.90
13052;DHT22;6592;47.484;9.726;2022-11-02T00:16:15;11.10;99.90
13052;DHT22;6592;47.484;9.726;2022-11-02T00:18:47;11.10;99.90
13052;DHT22;6592;47.484;9.726;2022-11-02T00:21:17;11.20;99.90
13052;DHT22;6592;47.484;9.726;2022-11-02T00:23:49;11.10;99.90
13052;DHT22;6592;47.484;9.726;2022-11-02T00:26:17;11.10;99.90
13052;DHT22;6592;47.484;9.726;2022-11-02T00:28:46;11.10;99.90
13052;DHT22;6592;47.484;9.726;2022-11-02T00:31:14;11.10;99.90
13052;DHT22;6592;47.484;9.726;2022-11-02T00:33:43;11.20;99.90
13052;DHT22;6592;47.484;9.726;2022-11-02T00:36:11;11.20;99.90
13052;DHT22;6592;47.484;9.726;2022-11-02T00:38:39;11.30;99.90
13052;DHT22;6592;47.484;9.726;2022-11-02T00:41:09;11.40;99.90
13052;DHT22;6592;47.484;9.726;2022-11-02T00:43:38;11.40;99.90
13052;DHT22;6592;47.484;9.726;2022-11-02T00:46:06;11.50;99.90
13052;DHT22;6592;47.484;9.726;2022-11-02T00:48:35;11.60;99.90
13052;DHT22;6592;47.484;9.726;2022-11-02T00:51:03;11.60;99.90
13052;DHT22;6592;47.484;9.726;2022-11-02T00:53:31;11.70;99.90
13052;DHT22;6592;47.484;9.726;2022-11-02T00:55:59;11.70;99.90
13052;DHT22;6592;47.484;9.726;2022-11-02T00:58:29;11.80;99.90
13052;DHT22;6592;47.484;9.726;2022-11-02T01:00:57;11.80;99.90
13052;DHT22;6592;47.484;9.726;2022-11-02T01:03:26;11.90;99.90
13052;DHT22;6592;47.484;9.726;2022-11-02T01:05:54;11.90;99.90
13052;DHT22;6592;47.484;9.726;2022-11-02T01:08:22;11.90;99.90
13052;DHT22;6592;47.484;9.726;2022-11-02T01:10:50;12.00;99.90
13052;DHT22;6592;47.484;9.726;2022-11-02T01:13:18;12.00;99.90
13052;DHT22;6592;47.484;9.726;2022-11-02T01:15:48;12.00;99.90
13052;DHT22;6592;47.484;9.726;2022-11-02T01:18:16;12.00;99.90
13052;DHT22;6592;47.484;9.726;2022-11-02T01:20:44;12.00;99.90
13052;DHT22;6592;47.484;9.726;2022-11-02T01:23:13;12.00;99.90
13052;DHT22;6592;47.484;9.726;2022-11-02T01:25:44;12.00;99.90
13052;DHT22;6592;47.484;9.726;2022-11-02T01:28:12;12.00;99.90
13052;DHT22;6592;47.484;9.726;2022-11-02T01:30:41;12.00;99.90
13052;DHT22;6592;47.484;9.726;2022-11-02T01:33:11;12.00;99.90
13052;DHT22;6592;47.484;9.726;2022-11-02T01:35:39;12.00;99.90
13052;DHT22;6592;47.484;9.726;2022-11-02T01:38:07;12.10;99.90
13052;DHT22;6592;47.484;9.726;2022-11-02T01:40:36;12.10;99.90
13052;DHT22;6592;47.484;9.726;2022-11-02T01:43:21;12.10;99.90
13052;DHT22;6592;47.484;9.726;2022-11-02T01:45:53;12.10;99.90
13052;DHT22;6592;47.484;9.726;2022-11-02T01:48:29;12.10;99.90
13052;DHT22;6592;47.484;9.726;2022-11-02T01:51:00;12.00;99.90
13052;DHT22;6592;47.484;9.726;2022-11-02T01:53:31;12.00;99.90
13052;DHT22;6592;47.484;9.726;2022-11-02T01:56:01;12.00;99.90
13052;DHT22;6592;47.484;9.726;2022-11-02T01:58:29;12.00;99.90
13052;DHT22;6592;47.484;9.726;2022-11-02T02:01:00;12.00;99.90
13052;DHT22;6592;47.484;9.726;2022-11-02T02:03:31;12.00;99.90
13052;DHT22;6592;47.484;9.726;2022-11-02T02:06:04;12.10;99.90
13052;DHT22;6592;47.484;9.726;2022-11-02T02:08:37;12.10;99.90
13052;DHT22;6592;47.484;9.726;2022-11-02T02:11:23;12.10;99.90
13052;DHT22;6592;47.484;9.726;2022-11-02T02:13:52;12.10;99.90
13052;DHT22;6592;47.484;9.726;2022-11-02T02:16:40;12.10;99.90
13052;DHT22;6592;47.484;9.726;2022-11-02T02:19:22;12.10;99.90
13052;DHT22;6592;47.484;9.726;2022-11-02T02:24:52;12.00;99.90
13052;DHT22;6592;47.484;9.726;2022-11-02T02:27:30;12.00;99.90
13052;DHT22;6592;47.484;9.726;2022-11-02T02:30:06;12.00;99.90
13052;DHT22;6592;47.484;9.726;2022-11-02T02:32:44;11.90;99.90
13052;DHT22;6592;47.484;9.726;2022-11-02T02:35:22;11.90;99.90
13052;DHT22;6592;47.484;9.726;2022-11-02T02:37:54;11.90;99.90
13052;DHT22;6592;47.484;9.726;2022-11-02T02:40:28;11.90;99.90
13052;DHT22;6592;47.484;9.726;2022-11-02T02:43:02;11.80;99.90
13052;DHT22;6592;47.484;9.726;2022-11-02T02:45:36;11.80;99.90
13052;DHT22;6592;47.484;9.726;2022-11-02T02:48:09;11.70;99.90
13052;DHT22;6592;47.484;9.726;2022-11-02T02:50:41;11.70;99.90
13052;DHT22;6592;47.484;9.726;2022-11-02T02:53:13;11.80;99.90
13052;DHT22;6592;47.484;9.726;2022-11-02T02:55:44;11.80;99.90
13052;DHT22;6592;47.484;9.726;2022-11-02T02:58:17;11.80;99.90
13052;DHT22;6592;47.484;9.726;2022-11-02T03:00:48;11.80;99.90
13052;DHT22;6592;47.484;9.726;2022-11-02T03:03:20;11.80;99.90
13052;DHT22;6592;47.484;9.726;2022-11-02T03:06:00;11.70;99.90
13052;DHT22;6592;47.484;9.726;2022-11-02T03:08:30;11.70;99.90
13052;DHT22;6592;47.484;9.726;2022-11-02T03:11:06;11.80;99.90
13052;DHT22;6592;47.484;9.726;2022-11-02T03:13:43;11.80;99.90
13052;DHT22;6592;47.484;9.726;2022-11-02T03:16:28;11.80;99.90
13052;DHT22;6592;47.484;9.726;2022-11-02T03:19:04;11.90;99.90
13052;DHT22;6592;47.484;9.726;2022-11-02T03:21:38;11.90;99.90
13052;DHT22;6592;47.484;9.726;2022-11-02T03:24:12;11.90;99.90
13052;DHT22;6592;47.484;9.726;2022-11-02T03:26:46;12.00;99.90
13052;DHT22;6592;47.484;9.726;2022-11-02T03:29:19;11.90;99.90
13052;DHT22;6592;47.484;9.726;2022-11-02T03:31:55;12.00;99.90
13052;DHT22;6592;47.484;9.726;2022-11-02T03:34:25;12.00;99.90
13052;DHT22;6592;47.484;9.726;2022-11-02T03:36:59;12.00;99.90
13052;DHT22;6592;47.484;9.726;2022-11-02T03:39:31;12.00;99.90
13052;DHT22;6592;47.484;9.726;2022-11-02T03:42:03;12.00;99.90
13052;DHT22;6592;47.484;9.726;2022-11-02T03:44:36;12.00;99.90
13052;DHT22;6592;47.484;9.726;2022-11-02T03:47:09;12.00;99.90
13052;DHT22;6592;47.484;9.726;2022-11-02T03:49:39;12.00;99.90
13052;DHT22;6592;47.484;9.726;2022-11-02T03:52:13;12.00;99.90
13052;DHT22;6592;47.484;9.726;2022-11-02T03:54:46;12.00;99.90
13052;DHT22;6592;47.484;9.726;2022-11-02T03:57:19;12.00;99.90
13052;DHT22;6592;47.484;9.726;2022-11-02T03:59:49;12.00;99.90
13052;DHT22;6592;47.484;9.726;2022-11-02T04:02:19;12.00;99.90
13052;DHT22;6592;47.484;9.726;2022-11-02T04:04:49;12.00;99.90
13052;DHT22;6592;47.484;9.726;2022-11-02T04:07:20;12.00;99.90
13052;DHT22;6592;47.484;9.726;2022-11-02T04:09:49;12.10;99.90
13052;DHT22;6592;47.484;9.726;2022-11-02T04:12:17;12.10;99.90
13052;DHT22;6592;47.484;9.726;2022-11-02T04:15:03;12.10;99.90
13052;DHT22;6592;47.484;9.726;2022-11-02T04:17:33;12.10;99.90
13052;DHT22;6592;47.484;9.726;2022-11-02T04:20:18;12.20;99.90
13052;DHT22;6592;47.484;9.726;2022-11-02T04:22:46;12.00;99.90
13052;DHT22;6592;47.484;9.726;2022-11-02T04:25:32;12.00;99.90
13052;DHT22;6592;47.484;9.726;2022-11-02T04:28:06;12.10;99.90
13052;DHT22;6592;47.484;9.726;2022-11-02T04:30:35;12.10;99.90
13052;DHT22;6592;47.484;9.726;2022-11-02T04:33:04;12.10;99.90
13052;DHT22;6592;47.484;9.726;2022-11-02T04:35:50;12.20;99.90
13052;DHT22;6592;47.484;9.726;2022-11-02T04:38:18;12.20;99.90
13052;DHT22;6592;47.484;9.726;2022-11-02T04:41:04;12.20;99.90
13052;DHT22;6592;47.484;9.726;2022-11-02T04:43:49;12.20;99.90
13052;DHT22;6592;47.484;9.726;2022-11-02T04:46:18;12.20;99.90
13052;DHT22;6592;47.484;9.726;2022-11-02T04:48:47;12.00;99.90
13052;DHT22;6592;47.484;9.726;2022-11-02T04:51:16;12.20;99.90
13052;DHT22;6592;47.484;9.726;2022-11-02T04:53:44;12.10;99.90
13052;DHT22;6592;47.484;9.726;2022-11-02T04:56:13;12.10;99.90
13052;DHT22;6592;47.484;9.726;2022-11-02T04:58:41;12.10;99.90
13052;DHT22;6592;47.484;9.726;2022-11-02T05:01:12;12.10;99.90
13052;DHT22;6592;47.484;9.726;2022-11-02T05:03:41;12.10;99.90
13052;DHT22;6592;47.484;9.726;2022-11-02T05:06:11;12.10;99.90
13052;DHT22;6592;47.484;9.726;2022-11-02T05:08:40;12.10;99.90
13052;DHT22;6592;47.484;9.726;2022-11-02T05:11:09;12.20;99.90
13052;DHT22;6592;47.484;9.726;2022-11-02T05:13:38;12.20;99.90
13052;DHT22;6592;47.484;9.726;2022-11-02T05:16:10;12.20;99.90
13052;DHT22;6592;47.484;9.726;2022-11-02T05:18:39;12.20;99.90
13052;DHT22;6592;47.484;9.726;2022-11-02T05:21:08;12.10;99.90
13052;DHT22;6592;47.484;9.726;2022-11-02T05:23:38;12.20;99.90
13052;DHT22;6592;47.484;9.726;2022-11-02T05:26:09;12.20;99.90
13052;DHT22;6592;47.484;9.726;2022-11-02T05:28:38;12.10;99.90
13052;DHT22;6592;47.484;9.726;2022-11-02T05:31:06;12.00;99.90
13052;DHT22;6592;47.484;9.726;2022-11-02T05:33:35;12.00;99.90
13052;DHT22;6592;47.484;9.726;2022-11-02T05:36:03;11.90;99.90
13052;DHT22;6592;47.484;9.726;2022-11-02T05:38:32;11.90;99.90
13052;DHT22;6592;47.484;9.726;2022-11-02T05:41:01;11.80;99.90
13052;DHT22;6592;47.484;9.726;2022-11-02T05:43:29;11.80;99.90
13052;DHT22;6592;47.484;9.726;2022-11-02T05:45:59;11.90;99.90
13052;DHT22;6592;47.484;9.726;2022-11-02T05:48:30;11.80;99.90
13052;DHT22;6592;47.484;9.726;2022-11-02T05:51:00;11.80;99.90
13052;DHT22;6592;47.484;9.726;2022-11-02T05:53:29;11.90;99.90
13052;DHT22;6592;47.484;9.726;2022-11-02T05:56:02;11.90;99.90
13052;DHT22;6592;47.484;9.726;2022-11-02T05:58:31;11.90;99.90
13052;DHT22;6592;47.484;9.726;2022-11-02T06:01:00;12.00;99.90
13052;DHT22;6592;47.484;9.726;2022-11-02T06:03:28;12.00;99.90
13052;DHT22;6592;47.484;9.726;2022-11-02T06:05:57;12.10;99.90
13052;DHT22;6592;47.484;9.726;2022-11-02T06:08:26;12.00;99.90
13052;DHT22;6592;47.484;9.726;2022-11-02T06:10:54;12.10;99.90
13052;DHT22;6592;47.484;9.726;2022-11-02T06:13:24;12.10;99.90
13052;DHT22;6592;47.484;9.726;2022-11-02T06:15:52;12.10;99.90
13052;DHT22;6592;47.484;9.726;2022-11-02T06:18:20;12.10;99.90
13052;DHT22;6592;47.484;9.726;2022-11-02T06:20:49;12.10;99.90
13052;DHT22;6592;47.484;9.726;2022-11-02T06:23:17;12.20;99.90
13052;DHT22;6592;47.484;9.726;2022-11-02T06:25:50;12.20;99.90
13052;DHT22;6592;47.484;9.726;2022-11-02T06:28:18;12.20;99.90
13052;DHT22;6592;47.484;9.726;2022-11-02T06:30:48;12.20;99.90
13052;DHT22;6592;47.484;9.726;2022-11-02T06:33:18;12.20;99.90
13052;DHT22;6592;47.484;9.726;2022-11-02T06:35:47;12.20;99.90
13052;DHT22;6592;47.484;9.726;2022-11-02T06:38:16;12.30;99.90
13052;DHT22;6592;47.484;9.726;2022-11-02T06:40:52;12.30;99.90
13052;DHT22;6592;47.484;9.726;2022-11-02T06:43:21;12.40;99.90
13052;DHT22;6592;47.484;9.726;2022-11-02T06:45:53;12.30;99.90
13052;DHT22;6592;47.484;9.726;2022-11-02T06:48:22;12.30;99.90
13052;DHT22;6592;47.484;9.726;2022-11-02T06:50:56;12.30;99.90
13052;DHT22;6592;47.484;9.726;2022-11-02T06:53:24;12.40;99.90
13052;DHT22;6592;47.484;9.726;2022-11-02T06:55:53;12.40;99.90
13052;DHT22;6592;47.484;9.726;2022-11-02T06:58:23;12.40;99.90
13052;DHT22;6592;47.484;9.726;2022-11-02T07:00:58;12.40;99.90
13052;DHT22;6592;47.484;9.726;2022-11-02T07:03:27;12.40;99.90
13052;DHT22;6592;47.484;9.726;2022-11-02T07:05:55;12.50;99.90
13052;DHT22;6592;47.484;9.726;2022-11-02T07:08:24;12.50;99.90
13052;DHT22;6592;47.484;9.726;2022-11-02T07:10:53;12.50;99.90
13052;DHT22;6592;47.484;9.726;2022-11-02T07:13:21;12.50;99.90
13052;DHT22;6592;47.484;9.726;2022-11-02T07:15:50;12.50;99.90
13052;DHT22;6592;47.484;9.726;2022-11-02T07:18:21;12.50;99.90
13052;DHT22;6592;47.484;9.726;2022-11-02T07:20:50;12.50;99.90
13052;DHT22;6592;47.484;9.726;2022-11-02T07:23:18;12.50;99.90
13052;DHT22;6592;47.484;9.726;2022-11-02T07:25:49;12.50;99.90
13052;DHT22;6592;47.484;9.726;2022-11-02T07:28:18;12.50;99.90
13052;DHT22;6592;47.484;9.726;2022-11-02T07:30:46;12.50;99.90
13052;DHT22;6592;47.484;9.726;2022-11-02T07:33:14;12.50;99.90
13052;DHT22;6592;47.484;9.726;2022-11-02T07:35:44;12.50;99.90
13052;DHT22;6592;47.484;9.726;2022-11-02T07:38:12;12.50;99.90
13052;DHT22;6592;47.484;9.726;2022-11-02T07:40:41;12.50;99.90
13052;DHT22;6592;47.484;9.726;2022-11-02T07:43:09;12.50;99.90
13052;DHT22;6592;47.484;9.726;2022-11-02T07:45:37;12.50;99.90
13052;DHT22;6592;47.484;9.726;2022-11-02T07:48:06;12.50;99.90
13052;DHT22;6592;47.484;9.726;2022-11-02T07:50:34;12.60;99.90
13052;DHT22;6592;47.484;9.726;2022-11-02T07:53:04;12.60;99.90
13052;DHT22;6592;47.484;9.726;2022-11-02T07:55:33;12.60;99.90
13052;DHT22;6592;47.484;9.726;2022-11-02T07:58:03;12.70;99.90
13052;DHT22;6592;47.484;9.726;2022-11-02T08:00:33;12.70;99.90
13052;DHT22;6592;47.484;9.726;2022-11-02T08:03:02;12.70;99.90
13052;DHT22;6592;47.484;9.726;2022-11-02T08:05:34;12.70;99.90
13052;DHT22;6592;47.484;9.726;2022-11-02T08:08:06;12.70;99.90
13052;DHT22;6592;47.484;9.726;2022-11-02T08:10:35;12.70;99.90
13052;DHT22;6592;47.484;9.726;2022-11-02T08:13:06;12.60;99.90
13052;DHT22;6592;47.484;9.726;2022-11-02T08:15:35;12.60;99.90
13052;DHT22;6592;47.484;9.726;2022-11-02T08:18:05;12.70;99.90
13052;DHT22;6592;47.484;9.726;2022-11-02T08:20:35;12.80;99.90
13052;DHT22;6592;47.484;9.726;2022-11-02T08:23:05;12.80;99.90
13052;DHT22;6592;47.484;9.726;2022-11-02T08:25:34;12.80;99.90
13052;DHT22;6592;47.484;9.726;2022-11-02T08:28:03;12.90;99.90
13052;DHT22;6592;47.484;9.726;2022-11-02T08:30:32;12.90;99.90
13052;DHT22;6592;47.484;9.726;2022-11-02T08:33:02;12.90;99.90
13052;DHT22;6592;47.484;9.726;2022-11-02T08:35:31;12.80;99.90
13052;DHT22;6592;47.484;9.726;2022-11-02T08:37:59;12.80;99.90
13052;DHT22;6592;47.484;9.726;2022-11-02T08:40:29;12.80;99.90
13052;DHT22;6592;47.484;9.726;2022-11-02T08:42:58;12.90;99.90
13052;DHT22;6592;47.484;9.726;2022-11-02T08:45:27;12.90;99.90
13052;DHT22;6592;47.484;9.726;2022-11-02T08:48:08;12.80;99.90
13052;DHT22;6592;47.484;9.726;2022-11-02T08:50:37;12.90;99.90
13052;DHT22;6592;47.484;9.726;2022-11-02T08:53:05;13.00;99.90
13052;DHT22;6592;47.484;9.726;2022-11-02T08:55:35;13.20;99.90
13052;DHT22;6592;47.484;9.726;2022-11-02T08:58:03;13.30;99.90
13052;DHT22;6592;47.484;9.726;2022-11-02T09:00:33;13.20;99.90
13052;DHT22;6592;47.484;9.726;2022-11-02T09:03:04;13.30;99.90
13052;DHT22;6592;47.484;9.726;2022-11-02T09:05:34;13.40;99.90
13052;DHT22;6592;47.484;9.726;2022-11-02T09:08:04;13.40;99.90
13052;DHT22;6592;47.484;9.726;2022-11-02T09:10:35;13.40;99.90
13052;DHT22;6592;47.484;9.726;2022-11-02T09:13:05;13.40;99.90
13052;DHT22;6592;47.484;9.726;2022-11-02T09:15:35;13.40;99.90
13052;DHT22;6592;47.484;9.726;2022-11-02T09:18:04;13.40;99.90
13052;DHT22;6592;47.484;9.726;2022-11-02T09:20:34;13.50;99.90
13052;DHT22;6592;47.484;9.726;2022-11-02T09:23:02;13.50;99.90
13052;DHT22;6592;47.484;9.726;2022-11-02T09:25:30;13.50;99.90
13052;DHT22;6592;47.484;9.726;2022-11-02T09:28:01;13.70;99.90
13052;DHT22;6592;47.484;9.726;2022-11-02T09:30:29;13.70;99.90
13052;DHT22;6592;47.484;9.726;2022-11-02T09:32:58;13.80;99.90
13052;DHT22;6592;47.484;9.726;2022-11-02T09:35:29;13.90;99.90
13052;DHT22;6592;47.484;9.726;2022-11-02T09:37:57;13.90;99.90
13052;DHT22;6592;47.484;9.726;2022-11-02T09:40:27;14.00;99.90
13052;DHT22;6592;47.484;9.726;2022-11-02T09:43:03;14.10;99.90
13052;DHT22;6592;47.484;9.726;2022-11-02T09:45:36;14.40;99.90
13052;DHT22;6592;47.484;9.726;2022-11-02T09:48:11;14.50;99.90
13052;DHT22;6592;47.484;9.726;2022-11-02T09:50:50;14.60;99.90
13052;DHT22;6592;47.484;9.726;2022-11-02T09:53:28;14.80;99.90
13052;DHT22;6592;47.484;9.726;2022-11-02T09:55:59;14.90;99.90
13052;DHT22;6592;47.484;9.726;2022-11-02T09:58:34;14.90;99.90
13052;DHT22;6592;47.484;9.726;2022-11-02T10:01:15;15.00;99.90
13052;DHT22;6592;47.484;9.726;2022-11-02T10:04:08;15.00;99.90
13052;DHT22;6592;47.484;9.726;2022-11-02T10:06:42;15.10;99.90
13052;DHT22;6592;47.484;9.726;2022-11-02T10:09:15;15.10;99.90
13052;DHT22;6592;47.484;9.726;2022-11-02T10:11:54;15.10;99.90
13052;DHT22;6592;47.484;9.726;2022-11-02T10:14:30;15.20;99.90
13052;DHT22;6592;47.484;9.726;2022-11-02T10:17:07;15.20;99.90
13052;DHT22;6592;47.484;9.726;2022-11-02T10:19:39;15.20;99.90
13052;DHT22;6592;47.484;9.726;2022-11-02T10:22:10;15.20;99.90
13052;DHT22;6592;47.484;9.726;2022-11-02T10:24:42;15.20;99.90
13052;DHT22;6592;47.484;9.726;2022-11-02T10:27:15;15.20;99.90
13052;DHT22;6592;47.484;9.726;2022-11-02T10:29:53;15.30;99.90
13052;DHT22;6592;47.484;9.726;2022-11-02T10:32:24;15.40;99.90
13052;DHT22;6592;47.484;9.726;2022-11-02T10:34:53;15.50;99.90
13052;DHT22;6592;47.484;9.726;2022-11-02T10:37:48;15.60;99.90
13052;DHT22;6592;47.484;9.726;2022-11-02T10:40:29;15.70;99.90
13052;DHT22;6592;47.484;9.726;2022-11-02T10:43:15;15.80;99.90
13052;DHT22;6592;47.484;9.726;2022-11-02T10:46:03;15.80;99.90
13052;DHT22;6592;47.484;9.726;2022-11-02T10:48:41;15.80;99.90
13052;DHT22;6592;47.484;9.726;2022-11-02T10:51:12;15.80;99.90
13052;DHT22;6592;47.484;9.726;2022-11-02T10:53:42;15.90;99.90
13052;DHT22;6592;47.484;9.726;2022-11-02T10:56:15;15.90;99.90
13052;DHT22;6592;47.484;9.726;2022-11-02T10:58:51;15.90;99.90
13052;DHT22;6592;47.484;9.726;2022-11-02T11:01:23;15.90;99.90
13052;DHT22;6592;47.484;9.726;2022-11-02T11:03:57;16.00;99.90
13052;DHT22;6592;47.484;9.726;2022-11-02T11:06:28;16.00;99.90
13052;DHT22;6592;47.484;9.726;2022-11-02T11:09:02;16.00;99.90
13052;DHT22;6592;47.484;9.726;2022-11-02T11:11:33;15.90;99.90
13052;DHT22;6592;47.484;9.726;2022-11-02T11:14:04;15.80;99.90
13052;DHT22;6592;47.484;9.726;2022-11-02T11:16:55;15.80;99.90
13052;DHT22;6592;47.484;9.726;2022-11-02T11:19:48;15.70;99.90
13052;DHT22;6592;47.484;9.726;2022-11-02T11:22:28;15.70;99.90
13052;DHT22;6592;47.484;9.726;2022-11-02T11:25:18;15.70;99.90
13052;DHT22;6592;47.484;9.726;2022-11-02T11:27:54;15.60;99.90
13052;DHT22;6592;47.484;9.726;2022-11-02T11:30:25;15.70;99.90
13052;DHT22;6592;47.484;9.726;2022-11-02T11:33:17;15.70;99.90
13052;DHT22;6592;47.484;9.726;2022-11-02T11:35:48;15.80;99.90
13052;DHT22;6592;47.484;9.726;2022-11-02T11:38:19;15.80;99.90
13052;DHT22;6592;47.484;9.726;2022-11-02T11:40:51;15.90;99.90
13052;DHT22;6592;47.484;9.726;2022-11-02T11:43:22;15.90;99.90
13052;DHT22;6592;47.484;9.726;2022-11-02T11:45:55;16.00;99.90
13052;DHT22;6592;47.484;9.726;2022-11-02T11:48:36;16.00;99.90
13052;DHT22;6592;47.484;9.726;2022-11-02T11:51:26;16.10;99.90
13052;DHT22;6592;47.484;9.726;2022-11-02T11:54:15;16.20;99.90
13052;DHT22;6592;47.484;9.726;2022-11-02T11:56:45;16.20;99.90
13052;DHT22;6592;47.484;9.726;2022-11-02T11:59:25;16.20;99.90
13052;DHT22;6592;47.484;9.726;2022-11-02T12:01:56;16.30;99.90
13052;DHT22;6592;47.484;9.726;2022-11-02T12:04:33;16.30;99.90
13052;DHT22;6592;47.484;9.726;2022-11-02T12:10:03;16.40;99.90
13052;DHT22;6592;47.484;9.726;2022-11-02T12:12:43;16.40;99.90
13052;DHT22;6592;47.484;9.726;2022-11-02T12:15:31;16.40;99.90
13052;DHT22;6592;47.484;9.726;2022-11-02T12:18:13;16.40;99.90
13052;DHT22;6592;47.484;9.726;2022-11-02T12:21:03;16.40;99.90
13052;DHT22;6592;47.484;9.726;2022-11-02T12:23:51;16.50;99.90
13052;DHT22;6592;47.484;9.726;2022-11-02T12:26:33;16.60;99.90
13052;DHT22;6592;47.484;9.726;2022-11-02T12:29:15;16.60;99.90
13052;DHT22;6592;47.484;9.726;2022-11-02T12:31:54;16.70;99.90
13052;DHT22;6592;47.484;9.726;2022-11-02T12:34:46;16.80;99.90
13052;DHT22;6592;47.484;9.726;2022-11-02T12:37:52;16.80;99.90
13052;DHT22;6592;47.484;9.726;2022-11-02T12:40:32;16.60;99.90
13052;DHT22;6592;47.484;9.726;2022-11-02T12:43:19;16.60;99.90
13052;DHT22;6592;47.484;9.726;2022-11-02T12:45:58;16.60;99.90
13052;DHT22;6592;47.484;9.726;2022-11-02T12:48:36;16.60;99.90
13052;DHT22;6592;47.484;9.726;2022-11-02T12:51:12;16.60;99.90
13052;DHT22;6592;47.484;9.726;2022-11-02T12:53:45;16.60;99.90
13052;DHT22;6592;47.484;9.726;2022-11-02T12:56:18;16.70;99.90
13052;DHT22;6592;47.484;9.726;2022-11-02T12:58:48;16.70;99.90
13052;DHT22;6592;47.484;9.726;2022-11-02T13:01:21;16.70;99.90
13052;DHT22;6592;47.484;9.726;2022-11-02T13:03:55;16.70;99.90
13052;DHT22;6592;47.484;9.726;2022-11-02T13:06:29;16.80;99.90
13052;DHT22;6592;47.484;9.726;2022-11-02T13:09:04;16.70;99.90
13052;DHT22;6592;47.484;9.726;2022-11-02T13:11:37;16.70;99.90
13052;DHT22;6592;47.484;9.726;2022-11-02T13:14:11;16.70;99.90
13052;DHT22;6592;47.484;9.726;2022-11-02T13:16:46;16.70;99.90
13052;DHT22;6592;47.484;9.726;2022-11-02T13:19:19;16.60;99.90
13052;DHT22;6592;47.484;9.726;2022-11-02T13:21:50;16.60;99.90
13052;DHT22;6592;47.484;9.726;2022-11-02T13:24:26;16.50;99.90
13052;DHT22;6592;47.484;9.726;2022-11-02T13:26:59;16.50;99.90
13052;DHT22;6592;47.484;9.726;2022-11-02T13:29:48;16.50;99.90
13052;DHT22;6592;47.484;9.726;2022-11-02T13:32:20;16.50;99.90
13052;DHT22;6592;47.484;9.726;2022-11-02T13:34:57;16.50;99.90
13052;DHT22;6592;47.484;9.726;2022-11-02T13:37:28;16.50;99.90
13052;DHT22;6592;47.484;9.726;2022-11-02T13:40:01;16.60;99.90
13052;DHT22;6592;47.484;9.726;2022-11-02T13:42:46;16.60;99.90
13052;DHT22;6592;47.484;9.726;2022-11-02T13:45:44;16.70;99.90
13052;DHT22;6592;47.484;9.726;2022-11-02T13:48:37;16.80;99.90
13052;DHT22;6592;47.484;9.726;2022-11-02T13:51:12;17.10;99.90
13052;DHT22;6592;47.484;9.726;2022-11-02T13:53:49;17.50;99.90
13052;DHT22;6592;47.484;9.726;2022-11-02T13:56:24;18.20;99.90
13052;DHT22;6592;47.484;9.726;2022-11-02T13:58:56;19.00;99.90
13052;DHT22;6592;47.484;9.726;2022-11-02T14:01:25;19.80;99.90
13052;DHT22;6592;47.484;9.726;2022-11-02T14:03:56;20.20;99.90
13052;DHT22;6592;47.484;9.726;2022-11-02T14:06:30;20.60;99.90
13052;DHT22;6592;47.484;9.726;2022-11-02T14:09:01;20.80;99.90
13052;DHT22;6592;47.484;9.726;2022-11-02T14:11:44;20.90;99.90
13052;DHT22;6592;47.484;9.726;2022-11-02T14:14:19;21.30;99.90
13052;DHT22;6592;47.484;9.726;2022-11-02T14:16:58;21.80;99.90
13052;DHT22;6592;47.484;9.726;2022-11-02T14:19:53;22.40;99.90
13052;DHT22;6592;47.484;9.726;2022-11-02T14:22:22;22.70;99.90
13052;DHT22;6592;47.484;9.726;2022-11-02T14:27:53;22.50;99.90
13052;DHT22;6592;47.484;9.726;2022-11-02T14:30:45;22.20;99.90
13052;DHT22;6592;47.484;9.726;2022-11-02T14:33:28;22.00;99.90
13052;DHT22;6592;47.484;9.726;2022-11-02T14:36:01;21.60;99.90
13052;DHT22;6592;47.484;9.726;2022-11-02T14:38:37;21.30;99.90
13052;DHT22;6592;47.484;9.726;2022-11-02T14:41:17;20.90;99.90
13052;DHT22;6592;47.484;9.726;2022-11-02T14:44:27;20.60;99.90
13052;DHT22;6592;47.484;9.726;2022-11-02T14:47:04;20.20;99.90
13052;DHT22;6592;47.484;9.726;2022-11-02T14:49:35;19.80;99.90
13052;DHT22;6592;47.484;9.726;2022-11-02T14:52:12;19.50;99.90
13052;DHT22;6592;47.484;9.726;2022-11-02T14:54:47;19.20;99.90
13052;DHT22;6592;47.484;9.726;2022-11-02T14:57:21;18.90;99.90
13052;DHT22;6592;47.484;9.726;2022-11-02T14:59:55;18.70;99.90
13052;DHT22;6592;47.484;9.726;2022-11-02T15:02:29;18.40;99.90
13052;DHT22;6592;47.484;9.726;2022-11-02T15:05:00;18.20;99.90
13052;DHT22;6592;47.484;9.726;2022-11-02T15:07:33;18.00;99.90
13052;DHT22;6592;47.484;9.726;2022-11-02T15:10:03;17.70;99.90
13052;DHT22;6592;47.484;9.726;2022-11-02T15:12:35;17.50;99.90
13052;DHT22;6592;47.484;9.726;2022-11-02T15:15:30;17.30;99.90
13052;DHT22;6592;47.484;9.726;2022-11-02T15:18:21;17.10;99.90
13052;DHT22;6592;47.484;9.726;2022-11-02T15:21:25;16.90;99.90
13052;DHT22;6592;47.484;9.726;2022-11-02T15:24:18;16.70;99.90
13052;DHT22;6592;47.484;9.726;2022-11-02T15:26:51;16.50;99.90
13052;DHT22;6592;47.484;9.726;2022-11-02T15:29:32;16.40;99.90
13052;DHT22;6592;47.484;9.726;2022-11-02T15:32:07;16.30;99.90
13052;DHT22;6592;47.484;9.726;2022-11-02T15:34:48;16.30;99.90
13052;DHT22;6592;47.484;9.726;2022-11-02T15:37:19;16.30;99.90
13052;DHT22;6592;47.484;9.726;2022-11-02T15:39:49;16.30;99.90
13052;DHT22;6592;47.484;9.726;2022-11-02T15:42:27;16.30;99.90
13052;DHT22;6592;47.484;9.726;2022-11-02T15:45:19;16.20;99.90
13052;DHT22;6592;47.484;9.726;2022-11-02T15:48:21;16.10;99.90
13052;DHT22;6592;47.484;9.726;2022-11-02T15:50:58;15.90;99.90
13052;DHT22;6592;47.484;9.726;2022-11-02T15:53:38;15.80;99.90
13052;DHT22;6592;47.484;9.726;2022-11-02T15:56:26;15.60;99.90
13052;DHT22;6592;47.484;9.726;2022-11-02T15:59:09;15.40;99.90
13052;DHT22;6592;47.484;9.726;2022-11-02T16:01:42;15.20;99.90
13052;DHT22;6592;47.484;9.726;2022-11-02T16:04:18;15.00;99.90
13052;DHT22;6592;47.484;9.726;2022-11-02T16:06:47;14.90;99.90
13052;DHT22;6592;47.484;9.726;2022-11-02T16:09:30;14.70;99.90
13052;DHT22;6592;47.484;9.726;2022-11-02T16:12:07;14.50;99.90
13052;DHT22;6592;47.484;9.726;2022-11-02T16:14:36;14.40;99.90
13052;DHT22;6592;47.484;9.726;2022-11-02T16:17:04;14.20;99.90
13052;DHT22;6592;47.484;9.726;2022-11-02T16:19:34;14.00;99.90
13052;DHT22;6592;47.484;9.726;2022-11-02T16:22:08;13.90;99.90
13052;DHT22;6592;47.484;9.726;2022-11-02T16:24:39;13.70;99.90
13052;DHT22;6592;47.484;9.726;2022-11-02T16:27:11;13.60;99.90
13052;DHT22;6592;47.484;9.726;2022-11-02T16:29:40;13.40;99.90
13052;DHT22;6592;47.484;9.726;2022-11-02T16:32:08;13.30;99.90
13052;DHT22;6592;47.484;9.726;2022-11-02T16:34:39;13.40;99.90